Time;durP1;ratioP1;P1;durP2;ratioP2;P2;SDS_P1;SDS_P2;PMS_P1;PMS_P2;Temp;Humidity;BMP_temperature;BMP_pressure;BME280_temperature;BME280_humidity;BME280_pressure;Samples;Min_cycle;Max_cycle;Signal;HPM_P1;HPM_P2
2021/01/15 00:01:36;;;;;;;27.75;17.52;;;0.70;99.90;;;;;;4956450;29;20039;-84
2021/01/15 00:04:02;;;;;;;29.20;17.48;;;0.70;99.90;;;;;;4956457;29;20027;-84
2021/01/15 00:06:29;;;;;;;26.23;17.60;;;0.80;99.90;;;;;;4956399;29;20110;-84
2021/01/15 00:08:55;;;;;;;31.05;16.73;;;0.80;99.90;;;;;;4957594;29;20031;-84
2021/01/15 00:11:26;;;;;;;25.45;17.23;;;0.80;99.90;;;;;;4956262;29;20027;-84
2021/01/15 00:13:53;;;;;;;25.60;16.17;;;0.80;99.90;;;;;;4957629;28;20031;-84
2021/01/15 00:16:19;;;;;;;28.17;17.73;;;0.80;99.90;;;;;;4956207;29;20027;-84
2021/01/15 00:18:45;;;;;;;26.90;15.93;;;0.80;99.90;;;;;;4957723;28;20027;-84
2021/01/15 00:21:31;;;;;;;22.75;15.45;;;0.70;99.90;;;;;;4957669;29;20031;-84
2021/01/15 00:23:59;;;;;;;26.45;15.65;;;0.70;99.90;;;;;;4957618;28;20122;-84
2021/01/15 00:26:27;;;;;;;26.75;15.90;;;0.60;99.90;;;;;;4956055;29;20506;-84
2021/01/15 00:28:53;;;;;;;27.00;16.23;;;0.60;99.90;;;;;;4955991;28;20027;-84
2021/01/15 00:31:20;;;;;;;27.60;16.08;;;0.70;99.90;;;;;;4955896;29;20031;-83
2021/01/15 00:33:46;;;;;;;23.35;15.13;;;0.70;99.90;;;;;;4955935;29;20025;-84
2021/01/15 00:36:12;;;;;;;27.55;16.20;;;0.70;99.90;;;;;;4955780;28;20063;-84
2021/01/15 00:38:38;;;;;;;25.52;15.48;;;0.70;99.90;;;;;;4955850;29;20031;-84
2021/01/15 00:41:08;;;;;;;24.80;14.85;;;0.70;99.90;;;;;;4955612;29;20106;-84
2021/01/15 00:43:35;;;;;;;26.10;16.13;;;0.60;99.90;;;;;;4955737;29;20487;-83
2021/01/15 00:46:01;;;;;;;26.17;15.00;;;0.60;99.90;;;;;;4957255;28;20058;-84
2021/01/15 00:48:29;;;;;;;21.02;15.27;;;0.50;99.90;;;;;;4956871;28;20027;-83
2021/01/15 00:50:55;;;;;;;26.33;16.55;;;0.60;99.90;;;;;;4956751;28;20087;-84
2021/01/15 00:53:20;;;;;;;22.98;15.43;;;0.60;99.90;;;;;;4956815;29;20427;-84
2021/01/15 00:55:50;;;;;;;28.77;15.27;;;0.70;99.90;;;;;;4956722;29;20482;-84
2021/01/15 00:58:15;;;;;;;23.20;15.38;;;0.50;99.90;;;;;;4955476;29;20141;-84
2021/01/15 01:00:41;;;;;;;21.05;14.65;;;0.50;99.90;;;;;;4955431;29;20067;-84
2021/01/15 01:03:07;;;;;;;21.58;14.60;;;0.50;99.90;;;;;;4956562;28;20024;-84
2021/01/15 01:05:34;;;;;;;19.90;14.20;;;0.60;99.90;;;;;;4955322;29;20038;-84
2021/01/15 01:08:00;;;;;;;23.02;14.55;;;0.60;99.90;;;;;;4956801;28;20027;-84
2021/01/15 01:10:26;;;;;;;22.40;14.63;;;0.50;99.90;;;;;;4956367;29;20054;-84
2021/01/15 01:12:52;;;;;;;23.85;14.32;;;0.60;99.90;;;;;;4955192;28;20035;-84
2021/01/15 01:15:18;;;;;;;22.15;14.77;;;0.70;99.90;;;;;;4955187;29;20027;-84
2021/01/15 01:17:44;;;;;;;23.92;14.55;;;0.70;99.90;;;;;;4955138;29;20023;-84
2021/01/15 01:20:11;;;;;;;24.08;14.05;;;0.60;99.90;;;;;;4955059;29;20035;-84
2021/01/15 01:22:38;;;;;;;22.42;14.05;;;0.70;99.90;;;;;;4955189;29;20483;-84
2021/01/15 01:25:05;;;;;;;23.55;13.90;;;0.60;99.90;;;;;;4955884;29;20526;-84
2021/01/15 01:27:31;;;;;;;26.65;14.05;;;0.60;99.90;;;;;;4954928;29;20119;-84
2021/01/15 01:29:58;;;;;;;23.08;14.18;;;0.70;99.90;;;;;;4956091;28;20106;-84
2021/01/15 01:32:23;;;;;;;20.50;13.63;;;0.60;99.90;;;;;;4954832;29;20061;-84
2021/01/15 01:34:49;;;;;;;18.90;13.45;;;0.60;99.90;;;;;;4955377;28;20055;-84
2021/01/15 01:37:15;;;;;;;22.17;13.35;;;0.70;99.90;;;;;;4955973;28;20023;-84
2021/01/15 01:39:40;;;;;;;20.35;13.65;;;0.70;99.90;;;;;;4954713;29;20552;-84
2021/01/15 01:42:06;;;;;;;23.90;13.13;;;0.60;99.90;;;;;;4954664;29;20071;-84
2021/01/15 01:44:32;;;;;;;22.25;14.30;;;0.50;99.90;;;;;;4956119;29;20526;-83
2021/01/15 01:46:58;;;;;;;20.10;13.52;;;0.60;99.90;;;;;;4956069;29;20041;-84
2021/01/15 01:49:25;;;;;;;20.20;12.27;;;0.60;99.90;;;;;;4954496;29;20027;-84
2021/01/15 01:51:51;;;;;;;21.40;13.30;;;0.50;99.90;;;;;;4954523;29;20066;-84
2021/01/15 01:54:17;;;;;;;20.05;13.30;;;0.50;99.90;;;;;;4954463;29;20027;-84
2021/01/15 01:56:43;;;;;;;20.40;12.48;;;0.40;99.90;;;;;;4954405;29;20030;-84
2021/01/15 01:59:12;;;;;;;18.10;12.32;;;0.50;99.90;;;;;;4954365;29;20027;-84
2021/01/15 02:01:38;;;;;;;19.05;13.02;;;0.60;99.90;;;;;;4955634;28;20027;-84
2021/01/15 02:04:05;;;;;;;22.10;12.95;;;0.50;99.90;;;;;;4954332;29;20054;-84
2021/01/15 02:06:35;;;;;;;18.58;12.23;;;0.60;99.90;;;;;;4955575;28;20030;-84
2021/01/15 02:09:10;;;;;;;26.55;13.80;;;0.40;99.90;;;;;;4954568;29;20035;-84
2021/01/15 02:11:49;;;;;;;19.88;12.73;;;0.50;99.90;;;;;;4954263;29;20423;-84
2021/01/15 02:14:30;;;;;;;20.45;13.23;;;0.40;99.90;;;;;;4954282;29;20390;-84
2021/01/15 02:16:57;;;;;;;23.15;12.40;;;0.50;99.90;;;;;;4955489;28;20027;-84
2021/01/15 02:19:34;;;;;;;26.17;12.88;;;0.50;99.90;;;;;;4955461;28;20023;-84
2021/01/15 02:22:34;;;;;;;20.58;12.70;;;0.50;99.90;;;;;;4954202;29;20103;-84
2021/01/15 02:25:57;;;;;;;20.55;12.50;;;0.50;99.90;;;;;;4954139;29;20114;-84
2021/01/15 02:29:03;;;;;;;20.98;12.20;;;0.50;99.90;;;;;;4899388;29;20115;-84
2021/01/15 02:31:44;;;;;;;17.95;11.48;;;0.50;99.90;;;;;;4909974;29;20044;-83
2021/01/15 02:34:35;;;;;;;21.17;11.93;;;0.40;99.90;;;;;;4953164;29;20126;-84
2021/01/15 02:37:32;;;;;;;20.20;12.57;;;0.40;99.90;;;;;;4953977;28;20035;-84
2021/01/15 02:40:25;;;;;;;21.15;11.27;;;0.40;99.90;;;;;;4953928;29;20024;-84
2021/01/15 02:42:52;;;;;;;25.48;11.68;;;0.40;99.90;;;;;;4954757;29;20382;-84
2021/01/15 02:45:19;;;;;;;18.27;10.40;;;0.50;99.90;;;;;;4954642;28;20365;-84
2021/01/15 02:47:52;;;;;;;16.58;10.38;;;0.40;99.90;;;;;;4959350;28;20055;-84
2021/01/15 02:50:24;;;;;;;16.60;11.52;;;0.40;99.90;;;;;;4957822;29;20510;-84
2021/01/15 02:52:50;;;;;;;17.27;9.98;;;0.40;99.90;;;;;;4957762;29;20034;-85
2021/01/15 02:55:17;;;;;;;17.83;11.05;;;0.50;99.90;;;;;;4959258;28;20494;-84
2021/01/15 02:57:44;;;;;;;15.35;9.10;;;0.50;99.90;;;;;;4958972;28;20035;-84
2021/01/15 03:00:12;;;;;;;16.92;9.93;;;0.40;99.90;;;;;;4957663;29;20379;-84
2021/01/15 03:03:03;;;;;;;16.25;9.00;;;0.40;99.90;;;;;;4957590;29;20023;-84
2021/01/15 03:05:34;;;;;;;14.95;9.02;;;0.30;99.90;;;;;;4957546;29;20054;-84
2021/01/15 03:08:03;;;;;;;17.77;9.07;;;0.30;99.90;;;;;;4957603;29;20391;-84
2021/01/15 03:10:30;;;;;;;11.48;7.50;;;0.30;99.90;;;;;;4958675;28;20031;-84
2021/01/15 03:12:58;;;;;;;12.27;8.48;;;0.30;99.90;;;;;;4958676;28;20487;-84
2021/01/15 03:15:25;;;;;;;14.30;8.15;;;0.30;99.90;;;;;;4957381;29;20483;-84
2021/01/15 03:17:52;;;;;;;16.33;8.02;;;0.20;99.90;;;;;;4958614;28;20015;-84
2021/01/15 03:20:20;;;;;;;10.30;6.57;;;0.20;99.90;;;;;;4958636;28;20478;-84
2021/01/15 03:22:47;;;;;;;12.30;7.30;;;0.20;99.90;;;;;;4957182;29;20038;-84
2021/01/15 03:25:14;;;;;;;14.13;7.40;;;0.10;99.90;;;;;;4957254;29;20049;-84
2021/01/15 03:27:53;;;;;;;12.68;7.15;;;0.20;99.90;;;;;;4958502;28;20059;-84
2021/01/15 03:30:21;;;;;;;9.38;6.68;;;0.20;99.90;;;;;;4957073;29;20034;-85
2021/01/15 03:32:54;;;;;;;12.95;6.95;;;0.20;99.90;;;;;;4957125;29;20023;-85
2021/01/15 03:35:23;;;;;;;13.48;7.78;;;0.20;99.90;;;;;;4958357;28;20086;-85
2021/01/15 03:38:04;;;;;;;14.18;7.18;;;0.20;99.90;;;;;;4956822;28;20502;-85
2021/01/15 03:40:32;;;;;;;14.55;6.40;;;0.20;99.90;;;;;;4956744;29;20043;-85
2021/01/15 03:42:58;;;;;;;10.90;5.90;;;0.20;99.90;;;;;;4956904;29;20031;-85
2021/01/15 03:45:26;;;;;;;9.93;6.38;;;0.20;99.90;;;;;;4956830;29;20024;-84
2021/01/15 03:47:52;;;;;;;11.05;6.30;;;0.30;99.90;;;;;;4958054;28;20039;-84
2021/01/15 03:50:18;;;;;;;11.15;6.32;;;0.30;99.90;;;;;;4958299;28;20056;-84
2021/01/15 03:52:47;;;;;;;9.95;6.22;;;0.30;99.90;;;;;;4956706;29;20114;-85
2021/01/15 03:55:13;;;;;;;10.68;7.07;;;0.20;99.90;;;;;;4957894;28;20098;-85
2021/01/15 03:57:38;;;;;;;12.85;6.57;;;0.20;99.90;;;;;;4955909;28;20451;-85
2021/01/15 04:00:05;;;;;;;10.95;6.97;;;0.20;99.90;;;;;;4956552;29;20027;-84
2021/01/15 04:02:31;;;;;;;11.65;6.22;;;0.20;99.90;;;;;;4956938;29;20031;-85
2021/01/15 04:04:57;;;;;;;12.30;6.60;;;0.20;99.90;;;;;;4956419;29;20031;-85
2021/01/15 04:07:23;;;;;;;8.85;5.78;;;0.20;99.90;;;;;;4956394;29;20023;-84
2021/01/15 04:09:49;;;;;;;10.90;7.30;;;0.20;99.90;;;;;;4956229;29;20034;-85
2021/01/15 04:12:14;;;;;;;13.13;6.07;;;0.20;99.90;;;;;;4957847;28;20023;-85
2021/01/15 04:14:41;;;;;;;12.02;6.32;;;0.20;99.90;;;;;;4956278;29;20046;-85
2021/01/15 04:17:07;;;;;;;11.82;6.95;;;0.30;99.90;;;;;;4956252;29;20027;-85
2021/01/15 04:19:33;;;;;;;12.13;6.57;;;0.30;99.90;;;;;;4956183;29;20036;-85
2021/01/15 04:21:59;;;;;;;11.60;6.55;;;0.30;99.90;;;;;;4956068;29;20356;-85
2021/01/15 04:24:25;;;;;;;10.00;5.80;;;0.30;99.90;;;;;;4956082;29;20034;-85
2021/01/15 04:26:52;;;;;;;8.65;5.35;;;0.20;99.90;;;;;;4956123;29;20030;-85
2021/01/15 04:29:18;;;;;;;10.02;5.65;;;0.20;99.90;;;;;;4957244;28;20066;-85
2021/01/15 04:31:44;;;;;;;10.00;5.57;;;0.20;99.90;;;;;;4955890;29;20027;-85
2021/01/15 04:34:10;;;;;;;7.82;5.28;;;0.20;99.90;;;;;;4955878;29;20472;-84
2021/01/15 04:36:36;;;;;;;7.68;4.97;;;0.10;99.90;;;;;;4957032;28;20099;-85
2021/01/15 04:39:02;;;;;;;11.02;4.93;;;0.10;99.90;;;;;;4956126;29;20547;-85
2021/01/15 04:41:30;;;;;;;6.80;4.50;;;0.20;99.90;;;;;;4955557;29;20130;-85
2021/01/15 04:43:56;;;;;;;6.78;3.92;;;0.30;99.90;;;;;;4955735;29;20034;-85
2021/01/15 04:46:25;;;;;;;7.63;4.57;;;0.00;99.90;;;;;;4956919;28;20053;-85
2021/01/15 04:48:53;;;;;;;8.32;5.22;;;-0.10;99.90;;;;;;4955662;29;20028;-84
2021/01/15 04:51:24;;;;;;;8.93;5.25;;;-0.20;99.90;;;;;;4955536;29;20032;-85
2021/01/15 04:54:00;;;;;;;10.07;5.32;;;-0.10;99.90;;;;;;4956824;28;20098;-85
2021/01/15 04:56:48;;;;;;;6.75;4.55;;;-0.20;99.90;;;;;;4955584;29;20023;-84
2021/01/15 04:59:16;;;;;;;8.20;5.20;;;-0.40;99.90;;;;;;4956723;28;20049;-85
2021/01/15 05:01:46;;;;;;;8.27;5.20;;;-0.30;99.90;;;;;;4956936;28;20523;-84
2021/01/15 05:04:19;;;;;;;7.85;4.63;;;-0.30;99.90;;;;;;4955402;29;20027;-85
2021/01/15 05:06:52;;;;;;;9.50;4.97;;;-0.40;99.90;;;;;;4955283;29;20034;-85
2021/01/15 05:09:22;;;;;;;7.18;4.82;;;-0.40;99.90;;;;;;4954295;28;20042;-84
2021/01/15 05:11:50;;;;;;;9.02;5.28;;;-0.40;99.90;;;;;;4955176;29;20039;-85
2021/01/15 05:14:16;;;;;;;7.65;5.03;;;-0.40;99.90;;;;;;4955160;29;20027;-85
2021/01/15 05:16:44;;;;;;;9.60;4.60;;;-0.50;99.90;;;;;;4955147;29;20046;-85
2021/01/15 05:19:12;;;;;;;9.45;4.88;;;-0.50;99.90;;;;;;4955131;29;20479;-85
2021/01/15 05:21:39;;;;;;;9.90;4.90;;;-0.60;99.90;;;;;;4955085;29;20027;-85
2021/01/15 05:24:06;;;;;;;8.80;4.60;;;-0.60;99.90;;;;;;4956240;28;20442;-85
2021/01/15 05:26:39;;;;;;;8.40;5.38;;;-0.50;99.90;;;;;;4954922;29;20050;-85
2021/01/15 05:29:08;;;;;;;8.60;5.05;;;-0.50;99.90;;;;;;4954870;29;20027;-85
2021/01/15 05:31:59;;;;;;;7.28;4.63;;;-0.60;99.90;;;;;;4954737;29;20086;-85
2021/01/15 05:34:26;;;;;;;7.53;4.63;;;-0.50;99.90;;;;;;4955093;29;20071;-85
2021/01/15 05:36:52;;;;;;;8.63;5.00;;;-0.40;99.90;;;;;;4954696;28;20024;-85
2021/01/15 05:39:24;;;;;;;7.88;4.78;;;-0.20;99.90;;;;;;4954742;29;20027;-85
2021/01/15 05:41:58;;;;;;;10.70;5.45;;;-0.20;99.90;;;;;;4954563;29;20399;-85
2021/01/15 05:44:32;;;;;;;11.77;5.07;;;0.00;99.90;;;;;;4954721;29;20023;-85
2021/01/15 05:47:00;;;;;;;9.35;5.70;;;0.10;99.90;;;;;;4954696;29;20043;-85
2021/01/15 05:49:26;;;;;;;10.93;6.85;;;0.00;99.90;;;;;;4954606;29;20483;-85
2021/01/15 05:51:52;;;;;;;9.02;6.47;;;-0.20;99.90;;;;;;4955785;28;20102;-85
2021/01/15 05:54:32;;;;;;;12.30;6.00;;;-0.10;99.90;;;;;;4954528;29;20451;-85
2021/01/15 05:57:00;;;;;;;9.73;5.47;;;-0.20;99.90;;;;;;4954489;29;20079;-85
2021/01/15 05:59:26;;;;;;;9.85;6.20;;;-0.40;99.90;;;;;;4954450;29;20030;-86
2021/01/15 06:01:59;;;;;;;11.00;6.45;;;-0.30;99.90;;;;;;4955899;28;20479;-85
2021/01/15 06:04:25;;;;;;;10.23;6.60;;;-0.40;99.90;;;;;;4956403;28;20439;-86
2021/01/15 06:06:51;;;;;;;21.88;12.60;;;-0.60;99.90;;;;;;4954358;29;20038;-86
2021/01/15 06:09:21;;;;;;;9.45;5.95;;;-0.50;99.90;;;;;;4954381;29;20019;-85
2021/01/15 06:11:48;;;;;;;8.98;5.78;;;-0.40;99.90;;;;;;4954778;29;20513;-85
2021/01/15 06:14:26;;;;;;;10.48;5.65;;;-0.30;99.90;;;;;;4955538;28;20054;-86
2021/01/15 06:17:09;;;;;;;9.32;5.63;;;-0.30;99.90;;;;;;4954279;29;20415;-86
2021/01/15 06:19:50;;;;;;;11.27;6.15;;;-0.20;99.90;;;;;;4954218;29;20364;-85
2021/01/15 06:22:32;;;;;;;6.03;4.70;;;-0.50;99.90;;;;;;4954211;29;20051;-85
2021/01/15 06:25:18;;;;;;;10.38;5.65;;;-0.70;99.90;;;;;;4955395;28;20459;-85
2021/01/15 06:27:45;;;;;;;9.57;6.55;;;-0.60;99.90;;;;;;4955777;28;20020;-86
2021/01/15 06:30:23;;;;;;;14.00;7.45;;;-0.30;99.90;;;;;;4954096;29;20491;-86
2021/01/15 06:32:49;;;;;;;13.45;6.88;;;-0.40;99.90;;;;;;4954168;29;20062;-86
2021/01/15 06:35:32;;;;;;;22.80;9.52;;;-0.50;99.90;;;;;;4954118;29;20382;-86
2021/01/15 06:38:32;;;;;;;18.38;7.80;;;-0.70;99.90;;;;;;4954039;28;20019;-85
2021/01/15 06:40:59;;;;;;;12.35;7.93;;;-0.80;99.90;;;;;;4952558;28;20522;-86
2021/01/15 06:43:36;;;;;;;12.48;7.78;;;-1.00;99.90;;;;;;4954120;29;20027;-85
2021/01/15 06:46:04;;;;;;;10.73;6.82;;;-1.10;99.90;;;;;;4953943;29;20031;-86
2021/01/15 06:48:38;;;;;;;13.20;7.38;;;-1.10;99.90;;;;;;4953960;29;20110;-85
2021/01/15 06:51:06;;;;;;;10.57;6.57;;;-1.00;99.90;;;;;;4955348;29;20058;-85
2021/01/15 06:53:43;;;;;;;13.68;7.85;;;-0.90;99.90;;;;;;4953954;29;20475;-86
2021/01/15 06:56:17;;;;;;;15.85;7.72;;;-1.10;99.90;;;;;;4955117;28;20020;-86
2021/01/15 06:58:44;;;;;;;;;;;-1.00;99.90;;;;;;4954440;29;20436;-85
2021/01/15 07:01:25;;;;;;;13.13;7.55;;;-0.90;99.90;;;;;;4954268;29;20410;-86
2021/01/15 07:03:53;;;;;;;19.35;9.05;;;-1.40;99.90;;;;;;4953889;29;20024;-86
2021/01/15 07:06:47;;;;;;;13.38;7.43;;;-1.30;99.90;;;;;;4953722;29;20028;-85
2021/01/15 07:09:12;;;;;;;16.70;8.68;;;-1.00;99.90;;;;;;4953812;29;20027;-86
2021/01/15 07:11:42;;;;;;;15.15;8.88;;;-1.20;99.90;;;;;;4953650;29;20082;-86
2021/01/15 07:14:08;;;;;;;13.35;7.63;;;-1.30;99.90;;;;;;4955229;28;20054;-86
2021/01/15 07:16:39;;;;;;;16.85;8.32;;;-1.40;99.90;;;;;;4953738;29;20082;-85
2021/01/15 07:19:05;;;;;;;17.15;9.43;;;-1.60;99.90;;;;;;4953635;29;20023;-85
2021/01/15 07:21:37;;;;;;;16.75;8.57;;;-1.70;99.90;;;;;;4954886;28;20082;-86
2021/01/15 07:24:05;;;;;;;22.88;10.27;;;-1.80;99.90;;;;;;4953717;29;20533;-86
2021/01/15 07:26:39;;;;;;;17.52;8.10;;;-1.70;99.90;;;;;;4954875;28;20391;-86
2021/01/15 07:29:15;;;;;;;;;;;-1.70;99.90;;;;;;4954212;29;20023;-85
2021/01/15 07:31:45;;;;;;;15.07;9.45;;;-1.40;99.90;;;;;;4954803;28;19961;-86
2021/01/15 07:34:16;;;;;;;15.10;9.48;;;-1.60;99.90;;;;;;4956986;29;20024;-87
2021/01/15 07:36:42;;;;;;;16.08;9.00;;;-1.40;99.90;;;;;;4958245;28;20027;-86
2021/01/15 07:39:18;;;;;;;15.20;8.48;;;-1.50;99.90;;;;;;4956889;29;20490;-86
2021/01/15 07:41:47;;;;;;;16.55;9.27;;;-1.40;99.90;;;;;;4956804;29;20102;-86
2021/01/15 07:44:22;;;;;;;14.90;8.55;;;-1.10;99.90;;;;;;4957168;29;20031;-86
2021/01/15 07:46:49;;;;;;;13.80;8.73;;;-1.30;99.90;;;;;;4956913;29;20174;-86
2021/01/15 07:49:15;;;;;;;13.77;8.85;;;-1.60;99.90;;;;;;4956913;29;20035;-87
2021/01/15 07:51:41;;;;;;;16.33;8.80;;;-1.70;99.90;;;;;;4956704;29;20045;-86
2021/01/15 07:54:07;;;;;;;15.05;8.77;;;-1.70;99.90;;;;;;4956745;29;20113;-86
2021/01/15 07:56:33;;;;;;;15.00;8.57;;;-1.80;99.90;;;;;;4957932;29;20546;-87
2021/01/15 07:58:59;;;;;;;16.35;9.40;;;-1.70;99.90;;;;;;4956656;29;20036;-86
2021/01/15 08:01:25;;;;;;;14.88;9.25;;;-1.60;99.90;;;;;;4956630;29;20027;-86
2021/01/15 08:03:54;;;;;;;13.70;8.52;;;-1.50;99.90;;;;;;4956569;29;20469;-87
2021/01/15 08:06:21;;;;;;;15.90;8.60;;;-1.50;99.90;;;;;;4956401;29;20031;-86
2021/01/15 08:09:00;;;;;;;14.50;8.30;;;-0.80;99.90;;;;;;4956394;29;20028;-86
2021/01/15 08:11:26;;;;;;;18.77;9.13;;;-0.50;99.90;;;;;;4956244;29;20395;-86
2021/01/15 08:14:17;;;;;;;15.07;9.98;;;-0.30;99.90;;;;;;4956331;29;20383;-86
2021/01/15 08:16:44;;;;;;;18.02;9.55;;;-0.40;99.90;;;;;;4957123;29;20464;-86
2021/01/15 08:19:12;;;;;;;21.08;10.65;;;-0.50;99.90;;;;;;4956257;29;20027;-86
2021/01/15 08:21:40;;;;;;;21.60;10.07;;;-0.60;99.90;;;;;;4956269;29;20034;-86
2021/01/15 08:24:06;;;;;;;22.05;10.88;;;-0.50;99.90;;;;;;4957376;28;20041;-86
2021/01/15 08:26:45;;;;;;;46.90;12.35;;;-0.80;99.90;;;;;;4956375;29;20031;-84
2021/01/15 08:29:11;;;;;;;24.15;11.80;;;-0.50;99.90;;;;;;4941564;29;20034;-85
2021/01/15 08:31:37;;;;;;;30.60;13.75;;;-0.30;99.90;;;;;;4955970;29;20023;-86
2021/01/15 08:34:13;;;;;;;34.92;15.93;;;-0.60;99.90;;;;;;4955975;29;20126;-85
2021/01/15 08:37:00;;;;;;;39.35;16.17;;;-0.60;99.90;;;;;;4955824;28;20024;-85
2021/01/15 08:39:26;;;;;;;40.47;15.35;;;-0.30;99.90;;;;;;4957002;29;20027;-85
2021/01/15 08:41:59;;;;;;;25.50;12.00;;;-0.10;99.90;;;;;;4956902;28;20043;-85
2021/01/15 08:44:34;;;;;;;27.33;12.73;;;-0.20;99.90;;;;;;4956881;28;20035;-85
2021/01/15 08:47:03;;;;;;;18.95;10.38;;;0.00;99.90;;;;;;4956969;28;20027;-85
2021/01/15 08:49:28;;;;;;;22.85;10.20;;;-0.30;99.90;;;;;;4956913;28;20166;-85
2021/01/15 08:51:58;;;;;;;19.05;11.30;;;-0.40;99.90;;;;;;4955405;29;20114;-85
2021/01/15 08:54:25;;;;;;;17.83;10.50;;;-0.30;99.90;;;;;;4956803;29;20025;-85
2021/01/15 08:56:52;;;;;;;23.17;11.98;;;-0.10;99.90;;;;;;4955442;29;20102;-85
2021/01/15 08:59:32;;;;;;;24.25;11.52;;;0.10;99.90;;;;;;4955435;29;20034;-85
2021/01/15 09:01:59;;;;;;;18.20;10.60;;;0.20;99.90;;;;;;4956650;28;20027;-85
2021/01/15 09:04:27;;;;;;;22.38;10.82;;;0.30;99.90;;;;;;4956611;28;20607;-84
2021/01/15 09:06:54;;;;;;;19.63;10.25;;;0.10;99.90;;;;;;4955411;29;20027;-85
2021/01/15 09:09:22;;;;;;;19.73;11.10;;;0.20;99.90;;;;;;4955309;29;20031;-84
2021/01/15 09:11:49;;;;;;;18.98;10.48;;;0.70;99.90;;;;;;4955222;29;20027;-85
2021/01/15 09:14:19;;;;;;;24.63;12.70;;;0.80;99.90;;;;;;4956383;28;20109;-85
2021/01/15 09:16:50;;;;;;;21.88;12.27;;;0.80;99.90;;;;;;4956997;28;20027;-85
2021/01/15 09:19:17;;;;;;;19.58;12.02;;;0.80;99.90;;;;;;4955233;29;20031;-85
2021/01/15 09:21:56;;;;;;;21.73;12.13;;;0.80;99.90;;;;;;4956317;28;20482;-85
2021/01/15 09:24:23;;;;;;;23.63;11.55;;;0.80;99.90;;;;;;4956373;28;20023;-85
2021/01/15 09:26:55;;;;;;;24.40;12.43;;;0.80;99.90;;;;;;4954962;29;20034;-85
2021/01/15 09:29:21;;;;;;;33.78;16.60;;;0.50;99.90;;;;;;4955000;29;20459;-85
2021/01/15 09:31:47;;;;;;;28.98;15.70;;;0.50;99.90;;;;;;4956367;29;20023;-85
2021/01/15 09:34:13;;;;;;;31.75;16.60;;;0.40;99.90;;;;;;4954817;29;20027;-85
2021/01/15 09:36:46;;;;;;;22.20;12.98;;;0.60;99.90;;;;;;4956269;28;20371;-85
2021/01/15 09:39:13;;;;;;;24.93;13.10;;;0.60;99.90;;;;;;4956052;28;20019;-86
2021/01/15 09:41:47;;;;;;;25.17;13.38;;;1.10;99.90;;;;;;4955835;28;20102;-86
2021/01/15 09:44:14;;;;;;;21.92;12.60;;;1.50;99.90;;;;;;4954772;29;20035;-86
2021/01/15 09:46:40;;;;;;;22.98;12.80;;;1.40;99.90;;;;;;4954630;29;20031;-86
2021/01/15 09:49:07;;;;;;;24.42;12.57;;;1.60;99.90;;;;;;4954601;29;20086;-85
2021/01/15 09:51:33;;;;;;;23.30;12.60;;;1.90;99.90;;;;;;4954468;29;20035;-86
2021/01/15 09:53:59;;;;;;;19.70;12.38;;;2.30;99.90;;;;;;4955783;28;20034;-86
2021/01/15 09:56:33;;;;;;;22.23;11.80;;;2.70;99.90;;;;;;4953906;28;20383;-85
2021/01/15 09:59:03;;;;;;;18.90;12.27;;;2.80;99.90;;;;;;4954432;29;20379;-86
2021/01/15 10:01:30;;;;;;;23.20;12.85;;;2.90;99.90;;;;;;4954366;29;20035;-86
2021/01/15 10:03:57;;;;;;;21.08;11.82;;;3.50;99.90;;;;;;4954748;29;20039;-85
2021/01/15 10:06:24;;;;;;;21.52;11.30;;;4.00;99.90;;;;;;4954768;29;20079;-86
2021/01/15 10:08:50;;;;;;;17.77;10.45;;;4.20;99.90;;;;;;4954441;29;20034;-86
2021/01/15 10:11:20;;;;;;;20.67;10.93;;;4.40;99.90;;;;;;4954372;29;20151;-86
2021/01/15 10:13:46;;;;;;;22.73;11.40;;;4.60;99.90;;;;;;4954350;29;20028;-85
2021/01/15 10:16:12;;;;;;;21.52;12.38;;;4.80;99.90;;;;;;4954279;29;20046;-85
2021/01/15 10:18:39;;;;;;;20.08;10.48;;;4.60;99.90;;;;;;4954237;29;20069;-85
2021/01/15 10:21:06;;;;;;;15.80;9.98;;;4.40;99.90;;;;;;4954220;29;20031;-85
2021/01/15 10:23:34;;;;;;;15.48;10.00;;;4.40;99.90;;;;;;4954291;29;20106;-85
2021/01/15 10:26:00;;;;;;;19.33;10.13;;;4.20;99.90;;;;;;4955450;28;20058;-86
2021/01/15 10:28:26;;;;;;;17.30;10.15;;;4.30;99.90;;;;;;4954253;28;20070;-86
2021/01/15 10:30:51;;;;;;;16.63;9.80;;;4.20;99.90;;;;;;4955117;29;20078;-86
2021/01/15 10:33:21;;;;;;;15.60;9.60;;;4.40;99.90;;;;;;4954358;29;20387;-87
2021/01/15 10:35:46;;;;;;;14.27;8.95;;;4.10;99.90;;;;;;4954540;29;20086;-87
2021/01/15 10:38:12;;;;;;;19.67;8.90;;;4.50;99.90;;;;;;4954758;28;20391;-87
2021/01/15 10:40:38;;;;;;;15.00;9.20;;;4.40;99.90;;;;;;4954488;29;20517;-87
2021/01/15 10:43:03;;;;;;;15.85;9.00;;;5.00;99.90;;;;;;4954957;29;20058;-87
2021/01/15 10:45:29;;;;;;;14.68;9.27;;;5.10;99.90;;;;;;4954835;29;20027;-88
2021/01/15 10:47:55;;;;;;;14.88;8.85;;;5.10;99.90;;;;;;4954477;29;20042;-88
2021/01/15 10:50:21;;;;;;;13.68;7.85;;;5.20;99.90;;;;;;4955233;29;20087;-88
2021/01/15 10:52:55;;;;;;;12.30;8.05;;;5.30;99.90;;;;;;4956177;28;20050;-88
2021/01/15 10:55:21;;;;;;;13.60;8.13;;;5.40;99.90;;;;;;4954983;29;20032;-90
2021/01/15 10:57:48;;;;;;;16.15;9.60;;;5.70;99.90;;;;;;4955059;29;20029;-91
2021/01/15 11:00:15;;;;;;;18.67;9.45;;;6.10;99.90;;;;;;4955969;28;20031;-91
2021/01/15 11:02:41;;;;;;;11.80;8.10;;;6.30;99.90;;;;;;4954496;29;20479;-90
2021/01/15 11:05:08;;;;;;;14.05;8.75;;;6.60;99.90;;;;;;4954944;29;20038;-89
2021/01/15 11:07:34;;;;;;;10.63;7.68;;;7.10;99.90;;;;;;4958288;28;20038;-88
2021/01/15 11:10:00;;;;;;;16.17;7.82;;;6.60;99.90;;;;;;4959212;28;20118;-85
2021/01/15 11:12:26;;;;;;;14.00;8.40;;;6.80;99.90;;;;;;4958923;28;20034;-88
2021/01/15 11:14:51;;;;;;;11.90;7.68;;;7.40;99.90;;;;;;4958930;28;20383;-87
2021/01/15 11:17:17;;;;;;;13.50;7.80;;;7.70;99.90;;;;;;4957882;29;20106;-87
2021/01/15 11:19:43;;;;;;;12.23;7.45;;;7.90;99.90;;;;;;4957415;29;20023;-86
2021/01/15 11:22:09;;;;;;;12.65;8.07;;;7.70;99.90;;;;;;4957418;29;20483;-86
2021/01/15 11:24:35;;;;;;;11.32;8.07;;;7.40;99.90;;;;;;4957303;29;20031;-86
2021/01/15 11:27:01;;;;;;;13.20;8.00;;;7.40;99.90;;;;;;4957328;29;20038;-85
2021/01/15 11:29:27;;;;;;;15.25;8.25;;;7.60;99.90;;;;;;4958750;28;20486;-85
2021/01/15 11:31:53;;;;;;;11.35;7.05;;;7.50;99.90;;;;;;4958348;28;20095;-84
2021/01/15 11:34:20;;;;;;;13.93;7.53;;;7.80;99.90;;;;;;4957244;29;20379;-86
2021/01/15 11:36:48;;;;;;;10.55;7.05;;;7.50;99.90;;;;;;4958271;28;20035;-84
2021/01/15 11:39:14;;;;;;;12.15;7.05;;;7.30;99.90;;;;;;4956986;29;20114;-84
2021/01/15 11:41:40;;;;;;;11.80;7.80;;;7.60;99.90;;;;;;4956781;29;20525;-84
2021/01/15 11:44:09;;;;;;;11.02;7.15;;;7.50;99.90;;;;;;4958248;28;20035;-83
2021/01/15 11:46:36;;;;;;;13.15;7.13;;;7.70;99.90;;;;;;4956888;29;20066;-85
2021/01/15 11:49:02;;;;;;;13.15;7.45;;;7.90;99.90;;;;;;4956883;29;20032;-84
2021/01/15 11:51:28;;;;;;;11.43;8.30;;;7.80;99.90;;;;;;4957946;28;20098;-85
2021/01/15 11:53:53;;;;;;;12.63;7.70;;;7.80;99.90;;;;;;4956783;29;20023;-85
2021/01/15 11:56:19;;;;;;;12.35;8.07;;;8.10;99.90;;;;;;4956663;29;20019;-84
2021/01/15 11:58:45;;;;;;;12.52;7.47;;;7.80;99.90;;;;;;4957907;28;20024;-85
2021/01/15 12:01:11;;;;;;;10.25;7.03;;;9.00;99.90;;;;;;4957812;28;20027;-85
2021/01/15 12:03:36;;;;;;;16.40;8.30;;;9.60;99.90;;;;;;4956562;29;20035;-85
2021/01/15 12:06:03;;;;;;;13.80;7.43;;;9.40;99.90;;;;;;4956472;29;20030;-85
2021/01/15 12:08:29;;;;;;;12.73;7.03;;;9.70;99.90;;;;;;4956471;29;20039;-85
2021/01/15 12:10:56;;;;;;;13.15;6.80;;;10.40;98.40;;;;;;4956373;29;20078;-85
2021/01/15 12:13:23;;;;;;;12.20;7.90;;;10.50;98.30;;;;;;4956383;29;20034;-85
2021/01/15 12:15:50;;;;;;;10.50;7.10;;;11.00;95.30;;;;;;4956351;29;20027;-85
2021/01/15 12:18:16;;;;;;;10.77;7.57;;;10.40;96.70;;;;;;4957007;28;20051;-85
2021/01/15 12:20:42;;;;;;;12.35;7.63;;;9.70;98.20;;;;;;4956436;29;20042;-82
2021/01/15 12:23:08;;;;;;;11.43;7.30;;;9.90;99.50;;;;;;4956236;29;20039;-83
2021/01/15 12:25:38;;;;;;;11.65;7.50;;;10.20;98.40;;;;;;4957409;28;20027;-84
2021/01/15 12:28:06;;;;;;;11.32;7.28;;;10.80;96.20;;;;;;4956343;29;20050;-82
2021/01/15 12:30:31;;;;;;;11.73;7.38;;;11.40;95.70;;;;;;4956242;29;20106;-82
2021/01/15 12:32:57;;;;;;;12.02;8.05;;;10.60;96.10;;;;;;4956037;29;20122;-83
2021/01/15 12:35:23;;;;;;;11.25;7.55;;;10.30;96.40;;;;;;4955992;29;20023;-83
2021/01/15 12:37:48;;;;;;;9.88;7.10;;;11.10;96.10;;;;;;4957415;28;20383;-82
2021/01/15 12:40:14;;;;;;;10.13;6.93;;;11.70;93.80;;;;;;4955932;29;20024;-83
2021/01/15 12:42:40;;;;;;;10.57;7.13;;;11.80;94.20;;;;;;4955772;29;20075;-83
2021/01/15 12:45:07;;;;;;;9.10;6.50;;;12.10;92.20;;;;;;4955797;29;20031;-83
2021/01/15 12:47:33;;;;;;;10.23;7.07;;;11.80;92.10;;;;;;4957038;28;20023;-83
2021/01/15 12:49:59;;;;;;;8.93;6.47;;;11.90;90.50;;;;;;4955622;29;20479;-83
2021/01/15 12:52:24;;;;;;;9.82;6.90;;;12.30;91.30;;;;;;4955697;29;20033;-83